Flight Track Log - Related Links

Times and Time Zones

All times are in EDT time to prevent confusion due to time zone crossing. See the FDX1351 flight status page for this flight to view local times or setup timezone preferences in your user account.

Time Position Orientation Groundspeed Altitude Reporting Facility
EDT Latitude Longitude Course Direction KTS MPH feet Rate Location/Type
Tue 10:01:57 PM 33.8333 -118.1667 266° West 148 170 1,900  Level Southern TRACON
Tue 10:02:43 PM 33.8308 -118.2094 266° West 238 274 3,100 2,748 Climbing Los Center
Tue 10:03:44 PM 33.7619 -118.2356 197° South 256 295 6,800 2,000 Climbing Los Center
Tue 10:04:46 PM 33.6836 -118.2611 195° South 277 319 7,200 1,645 Climbing Los Center
Tue 10:05:48 PM 33.6264 -118.2086 143° Southeast 282 325 10,200 3,073 Climbing Los Center
Tue 10:06:49 PM 33.6208 -118.1042 94° East 319 367 13,500 2,927 Climbing Los Center
Tue 10:07:51 PM 33.6228 -117.9889 89° East 344 396 16,200 2,516 Climbing Los Center
Tue 10:08:53 PM 33.6244 -117.8500 89° East 413 475 18,700 2,585 Climbing Los Center
Tue 10:09:54 PM 33.6261 -117.7031 89° East 438 504 21,500 2,878 Climbing Los Center
Tue 10:10:56 PM 33.6269 -117.5186 90° East 462 532 24,600 2,565 Climbing Los Center
Tue 10:11:58 PM 33.6281 -117.3578 89° East 480 552 26,800 2,129 Climbing Los Center
Tue 10:13:00 PM 33.6289 -117.1903 90° East 500 575 29,000 2,146 Climbing Los Center
Tue 10:14:01 PM 33.6453 -117.0233 83° East 506 582 31,200 2,049 Climbing Los Center
Tue 10:15:03 PM 33.6697 -116.8400 81° East 504 580 33,200 1,707 Climbing Los Center
Tue 10:16:04 PM 33.6917 -116.6717 81° East 508 585 34,700 878 Climbing Los Center
Tue 10:17:06 PM 33.7128 -116.5025 81° East 510 587 35,000 145 Climbing Los Center
Tue 10:18:08 PM 33.7344 -116.3325 81° East 512 589 35,000  Level Los Center
Tue 10:19:09 PM 33.7556 -116.1611 82° East 517 595 35,000  Level Los Center
Tue 10:20:11 PM 33.7764 -115.9908 82° East 516 594 35,000  Level Los Center
Tue 10:21:13 PM 33.7978 -115.8217 81° East 511 588 35,000  Level Los Center
Tue 10:22:14 PM 33.8178 -115.6500 82° East 517 595 35,000  Level Los Center
Tue 10:23:16 PM 33.8378 -115.4778 82° East 521 600 35,000  Level Los Center
Tue 10:24:18 PM 33.8619 -115.2711 82° East 520 598 35,000  Level Los Center
Tue 10:25:19 PM 33.8819 -115.1006 82° East 517 595 35,000  Level Los Center
Tue 10:26:21 PM 33.9017 -114.9278 82° East 521 600 35,000  Level Los Center
Tue 10:27:23 PM 33.9228 -114.7553 82° East 520 598 35,000  Level Los Center
Tue 10:28:25 PM 33.9419 -114.5836 82° East 518 596 35,000  Level Los Center
Tue 10:29:26 PM 33.9603 -114.4147 82° East 512 589 35,000 -58 Level Los Center
Tue 10:30:08 PM 33.9750 -114.2919 82° East 513 590 34,900  Descending Albuquerque Center
Tue 10:31:09 PM 33.9933 -114.1217 83° East 509 586 35,000 49 Climbing Albuquerque Center
Tue 10:32:10 PM 34.0111 -113.9517 83° East 510 587 35,000  Level Albuquerque Center
Tue 10:33:11 PM 34.0253 -113.7822 84° East 510 587 35,000  Level Albuquerque Center
Tue 10:34:13 PM 34.0417 -113.6122 83° East 511 588 35,000  Level Albuquerque Center
Tue 10:35:14 PM 34.0592 -113.4436 83° East 509 586 35,000  Level Albuquerque Center
Tue 10:36:15 PM 34.0806 -113.2408 83° East 509 586 35,000  Level Albuquerque Center
Tue 10:37:16 PM 34.0986 -113.0711 83° East 510 587 35,000  Level Albuquerque Center
Tue 10:38:17 PM 34.1158 -112.9000 83° East 512 589 35,000  Level Albuquerque Center
Tue 10:39:18 PM 34.1325 -112.7297 83° East 512 589 35,000  Level Albuquerque Center
Tue 10:40:20 PM 34.1506 -112.5581 83° East 514 592 35,000  Level Albuquerque Center
Tue 10:41:21 PM 34.1661 -112.3839 84° East 520 598 35,000  Level Albuquerque Center
Tue 10:42:22 PM 34.1817 -112.2097 84° East 519 597 35,000  Level Albuquerque Center
Tue 10:43:23 PM 34.1981 -112.0347 83° East 522 601 35,000  Level Albuquerque Center
Tue 10:44:24 PM 34.2147 -111.8408 84° East 524 603 35,000  Level Albuquerque Center
Tue 10:45:25 PM 34.2292 -111.6786 84° East 525 604 35,000  Level Albuquerque Center
Tue 10:46:26 PM 34.2450 -111.5031 84° East 523 602 35,000  Level Albuquerque Center
Tue 10:47:28 PM 34.2589 -111.3258 85° East 525 604 35,000  Level Albuquerque Center
Tue 10:48:29 PM 34.2742 -111.1494 84° East 527 606 35,000  Level Albuquerque Center
Tue 10:49:30 PM 34.2886 -110.9728 84° East 528 608 35,000  Level Albuquerque Center
Tue 10:50:31 PM 34.3050 -110.7586 85° East 532 612 35,000  Level Albuquerque Center
Tue 10:51:32 PM 34.3214 -110.5800 84° East 534 615 35,000  Level Albuquerque Center
Tue 10:52:33 PM 34.3356 -110.4044 84° East 532 612 35,000  Level Albuquerque Center
Tue 10:53:34 PM 34.3472 -110.2311 85° East 538 619 35,000  Level Albuquerque Center
Tue 10:54:35 PM 34.3614 -110.0292 85° East 540 621 35,000  Level Albuquerque Center
Tue 10:55:37 PM 34.3750 -109.8578 84° East 537 618 35,000  Level Albuquerque Center
Tue 10:56:38 PM 34.3892 -109.6558 85° East 539 620 35,000  Level Albuquerque Center
Tue 10:57:39 PM 34.4014 -109.4817 85° East 541 623 35,000  Level Albuquerque Center
Tue 10:58:40 PM 34.4122 -109.3081 86° East 542 624 35,000  Level Albuquerque Center
Tue 10:59:41 PM 34.4253 -109.1050 85° East 543 625 35,000  Level Albuquerque Center
Tue 11:00:42 PM 34.4233 -108.9303 91° East 543 625 35,000  Level Albuquerque Center
Tue 11:01:43 PM 34.4219 -108.7553 91° East 543 625 35,000  Level Albuquerque Center
Tue 11:02:45 PM 34.4214 -108.5489 90° East 546 628 35,000  Level Albuquerque Center
Tue 11:03:46 PM 34.4200 -108.3603 90° East 550 633 35,000  Level Albuquerque Center
Tue 11:04:47 PM 34.4175 -108.1756 91° East 550 633 35,000  Level Albuquerque Center
Tue 11:05:48 PM 34.4272 -107.9928 86° East 548 631 35,000  Level Albuquerque Center
Tue 11:06:49 PM 34.4439 -107.8122 84° East 544 626 35,000  Level Albuquerque Center
Tue 11:07:50 PM 34.4403 -107.6281 91° East 550 633 35,000  Level Albuquerque Center
Tue 11:08:52 PM 34.4350 -107.4450 92° East 548 631 35,000  Level Albuquerque Center
Tue 11:09:53 PM 34.4289 -107.2594 92° East 553 636 35,000  Level Albuquerque Center
Tue 11:10:54 PM 34.4219 -107.0744 93° East 553 636 35,000  Level Albuquerque Center
Tue 11:11:55 PM 34.4144 -106.8522 92° East 555 639 35,000  Level Albuquerque Center
Tue 11:12:57 PM 34.4053 -106.6631 93° East 563 648 35,000  Level Albuquerque Center
Tue 11:13:58 PM 34.3994 -106.4756 92° East 563 648 35,000  Level Albuquerque Center
Tue 11:14:59 PM 34.3922 -106.2881 93° East 562 647 35,000  Level Albuquerque Center
Tue 11:16:00 PM 34.3833 -106.1086 93° East 557 641 35,000  Level Albuquerque Center
Tue 11:17:02 PM 34.3739 -105.8878 93° East 559 643 35,000  Level Albuquerque Center
Tue 11:18:03 PM 34.3653 -105.6981 93° East 560 644 35,000  Level Albuquerque Center
Tue 11:19:04 PM 34.3778 -105.5078 85° East 561 646 35,000  Level Albuquerque Center
Tue 11:20:05 PM 34.3967 -105.3200 83° East 561 646 35,000  Level Albuquerque Center
Tue 11:21:06 PM 34.4128 -105.1314 84° East 561 646 35,000  Level Albuquerque Center
Tue 11:22:08 PM 34.4283 -104.9436 84° East 558 642 35,000  Level Albuquerque Center
Tue 11:23:09 PM 34.4444 -104.7561 84° East 557 641 35,000  Level Albuquerque Center
Tue 11:24:10 PM 34.4592 -104.5703 84° East 554 638 35,000  Level Albuquerque Center
Tue 11:25:12 PM 34.4758 -104.3836 84° East 555 639 35,000  Level Albuquerque Center
Tue 11:26:13 PM 34.4894 -104.1969 85° East 556 640 35,000  Level Albuquerque Center
Tue 11:27:14 PM 34.5044 -104.0083 84° East 558 642 35,000  Level Albuquerque Center
Tue 11:28:15 PM 34.5181 -103.8200 85° East 559 643 35,000  Level Albuquerque Center
Tue 11:29:17 PM 34.5344 -103.6008 85° East 558 642 35,000  Level Albuquerque Center
Tue 11:30:18 PM 34.5483 -103.4122 85° East 559 643 35,000  Level Albuquerque Center
Tue 11:31:19 PM 34.5622 -103.2222 85° East 562 647 35,000  Level Albuquerque Center
Tue 11:32:21 PM 34.5744 -103.0333 85° East 560 644 35,000  Level Albuquerque Center
Tue 11:33:22 PM 34.5886 -102.8444 85° East 560 644 35,000  Level Albuquerque Center
Tue 11:34:23 PM 34.6000 -102.6553 86° East 560 644 35,000  Level Albuquerque Center
Tue 11:35:24 PM 34.6125 -102.4475 86° East 562 647 35,000  Level Albuquerque Center
Tue 11:36:26 PM 34.6239 -102.2611 86° East 558 642 35,000  Level Albuquerque Center
Tue 11:37:27 PM 34.6347 -102.0808 86° East 546 628 35,000 -885 Level Albuquerque Center
Tue 11:38:28 PM 34.6469 -101.9011 85° East 539 620 33,200 -984 Descending Albuquerque Center
Tue 11:39:29 PM 34.6567 -101.7208 86° East 540 621 33,000 -98 Descending Albuquerque Center
Tue 11:40:31 PM 34.6669 -101.5347 86° East 551 634 33,000  Level Albuquerque Center
Tue 11:41:32 PM 34.6778 -101.3506 86° East 553 636 33,000  Level Albuquerque Center
Tue 11:42:33 PM 34.6881 -101.1683 86° East 550 633 33,000  Level Albuquerque Center
Tue 11:43:34 PM 34.6997 -100.9492 86° East 548 631 33,000  Level Albuquerque Center
Tue 11:44:35 PM 34.7089 -100.7642 86° East 551 634 33,000  Level Albuquerque Center
Tue 11:45:36 PM 34.7175 -100.5778 87° East 554 638 33,000  Level Albuquerque Center
Tue 11:46:38 PM 34.7258 -100.3917 87° East 554 638 33,000  Level Albuquerque Center
Tue 11:47:39 PM 34.7344 -100.2117 87° East 555 639 33,000  Level Albuquerque Center
Tue 11:48:40 PM 34.7431 -100.0250 87° East 554 638 33,000  Level Albuquerque Center
Tue 11:49:41 PM 34.7506 -99.8361 87° East 557 641 33,000  Level Albuquerque Center
Tue 11:50:19 PM 34.7575 -99.6908 87° East 554 638 33,000  Level Fort Center
Tue 11:51:19 PM 34.7628 -99.5064 88° East 554 638 33,000  Level Fort Center
Tue 11:52:19 PM 34.7700 -99.3169 87° East 549 632 33,000  Level Fort Center
Tue 11:53:19 PM 34.7750 -99.1275 88° East 549 632 33,000  Level Fort Center
Tue 11:54:19 PM 34.7836 -98.9431 87° East 549 632 33,000  Level Fort Center
Tue 11:55:19 PM 34.7878 -98.7586 88° East 549 632 33,000  Level Fort Center
Tue 11:56:19 PM 34.7958 -98.5969 86° East 549 632 33,000  Level Fort Center
Tue 11:57:19 PM 34.7994 -98.4150 89° East 549 632 33,000  Level Fort Center
Tue 11:58:19 PM 34.8050 -98.2303 88° East 549 632 33,000  Level Fort Center
Tue 11:59:19 PM 34.8081 -98.0483 89° East 544 626 33,000  Level Fort Center
Wed 12:00:19 AM 34.8131 -97.8636 88° East 544 626 33,000  Level Fort Center
Wed 12:01:19 AM 34.8178 -97.6767 88° East 544 626 33,000  Level Fort Center
Wed 12:02:19 AM 34.8200 -97.4919 89° East 544 626 33,000  Level Fort Center
Wed 12:03:19 AM 34.8242 -97.3022 88° East 544 626 33,000  Level Fort Center
Wed 12:04:19 AM 34.8281 -97.1200 88° East 549 632 33,000  Level Fort Center
Wed 12:05:19 AM 34.8317 -96.9353 89° East 549 632 33,000  Level Fort Center
Wed 12:06:19 AM 34.8350 -96.7483 89° East 549 632 33,000  Level Fort Center
Wed 12:07:19 AM 34.8381 -96.5636 89° East 549 632 33,000  Level Fort Center
Wed 12:08:19 AM 34.8389 -96.3789 90° East 549 632 33,000  Level Fort Center
Wed 12:09:18 AM 34.8414 -96.1967 89° East 549 632 33,000  Level Fort Center
Wed 12:10:19 AM 34.8436 -96.0094 89° East 549 632 33,000  Level Fort Center
Wed 12:11:19 AM 34.8456 -95.8222 89° East 549 632 33,000  Level Fort Center
Wed 12:13:46 AM 34.8356 -95.3767 91° East 538 619 33,000  Level Memphis Center
Wed 12:14:46 AM 34.8261 -95.1914 94° East 543 625 33,000  Level Memphis Center
Wed 12:15:46 AM 34.8122 -95.0086 95° East 543 625 33,000  Level Memphis Center
Wed 12:16:46 AM 34.7939 -94.8256 97° East 543 625 33,000  Level Memphis Center
Wed 12:17:46 AM 34.7794 -94.6428 95° East 543 625 33,000  Level Memphis Center
Wed 12:18:46 AM 34.7647 -94.4575 95° East 543 625 33,000  Level Memphis Center
Wed 12:19:46 AM 34.7481 -94.2644 96° East 552 635 33,000  Level Memphis Center
Wed 12:20:46 AM 34.7328 -94.0794 96° East 557 641 33,000  Level Memphis Center
Wed 12:21:46 AM 34.7172 -93.8994 96° East 557 641 33,000  Level Memphis Center
Wed 12:22:46 AM 34.6992 -93.7192 97° East 551 634 33,000  Level Memphis Center
Wed 12:23:46 AM 34.6831 -93.5367 96° East 546 628 33,000  Level Memphis Center
Wed 12:24:46 AM 34.6669 -93.3544 96° East 541 623 33,000  Level Memphis Center
Wed 12:25:46 AM 34.6503 -93.1694 96° East 541 623 33,000  Level Memphis Center
Wed 12:26:46 AM 34.6294 -92.9719 97° East 546 628 33,000 -200 Level Memphis Center
Wed 12:27:46 AM 34.6122 -92.7922 97° East 546 628 32,600 -650 Descending Memphis Center
Wed 12:28:46 AM 34.5947 -92.6125 97° East 541 623 31,700 -950 Descending Memphis Center
Wed 12:29:46 AM 34.5769 -92.4356 97° East 541 623 30,700 -1,000 Descending Memphis Center
Wed 12:30:46 AM 34.5589 -92.2586 97° East 541 623 29,700 -1,000 Descending Memphis Center
Wed 12:31:46 AM 34.5406 -92.0919 98° East 519 597 28,700 -1,000 Descending Memphis Center
Wed 12:32:46 AM 34.5239 -91.9250 97° East 506 582 27,700 -1,000 Descending Memphis Center
Wed 12:33:46 AM 34.5028 -91.7683 99° East 495 570 26,700 -1,000 Descending Memphis Center
Wed 12:34:46 AM 34.4247 -91.6614 131° Southeast 442 509 25,700 -1,000 Descending Memphis Center
Wed 12:35:46 AM 34.3425 -91.5444 130° Southeast 437 503 24,700 -1,000 Descending Memphis Center
Wed 12:36:46 AM 34.3481 -91.3911 87° East 429 494 23,700 -1,450 Descending Memphis Center
Wed 12:37:46 AM 34.4033 -91.2508 64° Northeast 436 502 21,800 -2,200 Descending Memphis Center
Wed 12:38:46 AM 34.4667 -91.1206 59° Northeast 430 495 19,300 -2,400 Descending Memphis Center
Wed 12:39:46 AM 34.5258 -90.9950 60° Northeast 430 495 17,000 -2,100 Descending Memphis Center
Wed 12:40:46 AM 34.5806 -90.8894 58° Northeast 425 489 15,100 -1,500 Descending Memphis Center
Wed 12:41:46 AM 34.6519 -90.7839 51° Northeast 408 470 14,000 -500 Descending Memphis Center
Wed 12:42:46 AM 34.7294 -90.6933 44° Northeast 388 447 14,100  Climbing Memphis Center
Wed 12:43:46 AM 34.8025 -90.7264 340° North 239 275 14,000 -100 Descending Memphis Center
Wed 12:44:46 AM 34.7853 -90.8097 256° West 160 184 13,900 -150 Descending Memphis Center
Wed 12:45:46 AM 34.7642 -90.8881 252° West 189 217 13,700 50 Descending Memphis Center
Wed 12:46:46 AM 34.7222 -90.9611 235° Southwest 249 287 14,000 150 Climbing Memphis Center
Wed 12:47:46 AM 34.6800 -91.0264 232° Southwest 249 287 14,000 50 Level Memphis Center
Wed 12:48:46 AM 34.6381 -91.0942 233° Southwest 254 292 14,100 50 Climbing Memphis Center
Wed 12:49:46 AM 34.5939 -91.1619 232° Southwest 254 292 14,100  Level Memphis Center
Wed 12:50:46 AM 34.5517 -91.2247 231° Southwest 253 291 14,100  Level Memphis Center
Wed 12:51:46 AM 34.4889 -91.2339 187° South 234 269 14,100  Level Memphis Center
Wed 12:52:46 AM 34.4583 -91.1356 111° Southeast 227 261 14,100 -50 Level Memphis Center
Wed 12:53:46 AM 34.4778 -91.0375 76° East 254 292 14,000 -50 Descending Memphis Center
Wed 12:54:46 AM 34.5406 -90.9572 46° Northeast 301 346 14,000  Level Memphis Center
Wed 12:55:46 AM 34.5975 -90.8719 51° Northeast 311 358 14,000 -200 Level Memphis Center
Wed 12:56:46 AM 34.6456 -90.7939 53° Northeast 320 368 13,600 -1,050 Descending Memphis Center
Wed 12:57:46 AM 34.7064 -90.7058 50° Northeast 327 376 11,900 -1,550 Descending Memphis Center
Wed 12:58:46 AM 34.7631 -90.6275 49° Northeast 315 362 10,500 -1,450 Descending Memphis Center
Wed 12:59:46 AM 34.7861 -90.5342 73° East 275 316 9,000 -1,400 Descending Memphis Center
Wed 01:00:46 AM 34.7550 -90.4481 114° Southeast 266 306 7,700 -1,300 Descending Memphis Center
Wed 01:01:46 AM 34.7214 -90.3647 116° Southeast 266 306 6,400 -850 Descending Memphis Center
Wed 01:02:46 AM 34.6922 -90.2864 114° Southeast 266 306 6,000 -300 Descending Memphis Center
Wed 01:03:46 AM 34.6567 -90.2056 118° Southeast 250 288 5,800 -750 Descending Memphis Center
Wed 01:04:46 AM 34.6358 -90.1300 109° East 244 281 4,500 -900 Descending Memphis Center
Wed 01:05:46 AM 34.6647 -90.0617 63° Northeast 224 258 4,000 -900 Descending Memphis Center
Wed 01:06:46 AM 34.7314 -90.0286 22° Northeast 225 259 2,700 -1,000 Descending Memphis Center
Wed 01:07:46 AM 34.7981 -89.9931 24° Northeast 249 287 2,000 -350 Descending Memphis Center
Wed 01:08:46 AM 34.8669 -89.9850 North 250 288 2,000  Level Memphis Center
Wed 01:09:46 AM 34.9256 -89.9897 356° North 221 254 2,000 -200 Level Memphis Center
Wed 01:10:46 AM 34.9714 -89.9872 North 197 227 1,600 -700 Descending Memphis Center
Wed 01:11:46 AM 35.0150 -89.9894 358° North 165 190 600 -1,000 Descending Memphis Center
Wed 01:13:00 AM 35.0333 -89.9667 North  Level FlightAware

Login

Don't have an account? Register now (free) for customized features, flight alerts, and more!